sensor_id;sensor_type;location;lat;lon;timestamp;P1;durP1;ratioP1;P2;durP2;ratioP2
18274;SDS011;19470;49.322;7.218;2023-08-08T00:02:17;4.65;;;1.80;;
18274;SDS011;19470;49.322;7.218;2023-08-08T00:04:43;3.10;;;1.40;;
18274;SDS011;19470;49.322;7.218;2023-08-08T00:07:10;2.28;;;1.55;;
18274;SDS011;19470;49.322;7.218;2023-08-08T00:09:38;3.45;;;1.45;;
18274;SDS011;19470;49.322;7.218;2023-08-08T00:12:05;3.80;;;1.50;;
18274;SDS011;19470;49.322;7.218;2023-08-08T00:14:32;4.35;;;1.42;;
18274;SDS011;19470;49.322;7.218;2023-08-08T00:16:58;1.80;;;1.48;;
18274;SDS011;19470;49.322;7.218;2023-08-08T00:19:25;5.63;;;1.52;;
18274;SDS011;19470;49.322;7.218;2023-08-08T00:21:51;5.30;;;1.70;;
18274;SDS011;19470;49.322;7.218;2023-08-08T00:24:18;3.83;;;1.40;;
18274;SDS011;19470;49.322;7.218;2023-08-08T00:26:46;2.72;;;1.70;;
18274;SDS011;19470;49.322;7.218;2023-08-08T00:29:12;3.42;;;1.73;;
18274;SDS011;19470;49.322;7.218;2023-08-08T00:31:39;4.07;;;1.52;;
18274;SDS011;19470;49.322;7.218;2023-08-08T00:34:05;4.82;;;2.47;;
18274;SDS011;19470;49.322;7.218;2023-08-08T00:36:32;5.40;;;3.00;;
18274;SDS011;19470;49.322;7.218;2023-08-08T00:38:58;6.32;;;2.28;;
18274;SDS011;19470;49.322;7.218;2023-08-08T00:41:25;4.25;;;1.90;;
18274;SDS011;19470;49.322;7.218;2023-08-08T00:43:53;3.60;;;1.90;;
18274;SDS011;19470;49.322;7.218;2023-08-08T00:46:20;4.28;;;1.80;;
18274;SDS011;19470;49.322;7.218;2023-08-08T00:48:49;5.05;;;1.70;;
18274;SDS011;19470;49.322;7.218;2023-08-08T00:51:16;4.13;;;1.60;;
18274;SDS011;19470;49.322;7.218;2023-08-08T00:53:43;4.50;;;1.55;;
18274;SDS011;19470;49.322;7.218;2023-08-08T00:56:11;2.33;;;1.60;;
18274;SDS011;19470;49.322;7.218;2023-08-08T00:58:39;5.30;;;1.77;;
18274;SDS011;19470;49.322;7.218;2023-08-08T01:01:07;4.97;;;1.90;;
18274;SDS011;19470;49.322;7.218;2023-08-08T01:03:34;5.05;;;1.67;;
18274;SDS011;19470;49.322;7.218;2023-08-08T01:06:01;5.57;;;1.75;;
18274;SDS011;19470;49.322;7.218;2023-08-08T01:08:35;6.47;;;1.50;;
18274;SDS011;19470;49.322;7.218;2023-08-08T01:11:08;6.63;;;1.63;;
18274;SDS011;19470;49.322;7.218;2023-08-08T01:13:35;3.70;;;1.60;;
18274;SDS011;19470;49.322;7.218;2023-08-08T01:16:03;6.22;;;2.10;;
18274;SDS011;19470;49.322;7.218;2023-08-08T01:18:32;3.20;;;1.90;;
18274;SDS011;19470;49.322;7.218;2023-08-08T01:21:01;9.07;;;1.70;;
18274;SDS011;19470;49.322;7.218;2023-08-08T01:23:28;3.17;;;1.77;;
18274;SDS011;19470;49.322;7.218;2023-08-08T01:26:00;2.53;;;1.85;;
18274;SDS011;19470;49.322;7.218;2023-08-08T01:28:27;6.10;;;1.58;;
18274;SDS011;19470;49.322;7.218;2023-08-08T01:30:54;4.50;;;2.05;;
18274;SDS011;19470;49.322;7.218;2023-08-08T01:33:20;4.85;;;1.90;;
18274;SDS011;19470;49.322;7.218;2023-08-08T01:35:48;2.95;;;1.60;;
18274;SDS011;19470;49.322;7.218;2023-08-08T01:38:19;3.53;;;1.75;;
18274;SDS011;19470;49.322;7.218;2023-08-08T01:40:49;3.70;;;2.03;;
18274;SDS011;19470;49.322;7.218;2023-08-08T01:43:17;6.35;;;2.20;;
18274;SDS011;19470;49.322;7.218;2023-08-08T01:45:44;2.92;;;1.75;;
18274;SDS011;19470;49.322;7.218;2023-08-08T01:48:11;4.50;;;1.80;;
18274;SDS011;19470;49.322;7.218;2023-08-08T01:50:38;2.28;;;1.73;;
18274;SDS011;19470;49.322;7.218;2023-08-08T01:53:04;6.30;;;1.85;;
18274;SDS011;19470;49.322;7.218;2023-08-08T01:55:31;4.03;;;1.75;;
18274;SDS011;19470;49.322;7.218;2023-08-08T01:57:57;7.30;;;1.63;;
18274;SDS011;19470;49.322;7.218;2023-08-08T02:00:25;3.30;;;1.50;;
18274;SDS011;19470;49.322;7.218;2023-08-08T02:03:10;5.65;;;2.05;;
18274;SDS011;19470;49.322;7.218;2023-08-08T02:05:37;2.85;;;1.80;;
18274;SDS011;19470;49.322;7.218;2023-08-08T02:08:05;4.30;;;1.98;;
18274;SDS011;19470;49.322;7.218;2023-08-08T02:10:31;3.88;;;2.17;;
18274;SDS011;19470;49.322;7.218;2023-08-08T02:12:58;2.80;;;1.85;;
18274;SDS011;19470;49.322;7.218;2023-08-08T02:15:26;186.65;;;107.05;;
18274;SDS011;19470;49.322;7.218;2023-08-08T02:17:52;52.92;;;28.63;;
18274;SDS011;19470;49.322;7.218;2023-08-08T02:20:19;16.25;;;11.07;;
18274;SDS011;19470;49.322;7.218;2023-08-08T02:22:45;23.00;;;11.63;;
18274;SDS011;19470;49.322;7.218;2023-08-08T02:25:12;8.70;;;3.33;;
18274;SDS011;19470;49.322;7.218;2023-08-08T02:27:38;4.45;;;1.95;;
18274;SDS011;19470;49.322;7.218;2023-08-08T02:30:05;1.70;;;1.40;;
18274;SDS011;19470;49.322;7.218;2023-08-08T02:32:34;2.20;;;1.60;;
18274;SDS011;19470;49.322;7.218;2023-08-08T02:35:00;3.53;;;1.73;;
18274;SDS011;19470;49.322;7.218;2023-08-08T02:37:27;3.70;;;2.08;;
18274;SDS011;19470;49.322;7.218;2023-08-08T02:39:53;3.45;;;2.13;;
18274;SDS011;19470;49.322;7.218;2023-08-08T02:42:20;4.90;;;1.80;;
18274;SDS011;19470;49.322;7.218;2023-08-08T02:44:46;3.05;;;1.73;;
18274;SDS011;19470;49.322;7.218;2023-08-08T02:47:13;2.47;;;1.75;;
18274;SDS011;19470;49.322;7.218;2023-08-08T02:49:41;4.47;;;1.58;;
18274;SDS011;19470;49.322;7.218;2023-08-08T02:52:07;3.90;;;2.00;;
18274;SDS011;19470;49.322;7.218;2023-08-08T02:54:34;3.50;;;1.77;;
18274;SDS011;19470;49.322;7.218;2023-08-08T02:57:00;2.33;;;1.70;;
18274;SDS011;19470;49.322;7.218;2023-08-08T02:59:26;2.00;;;1.65;;
18274;SDS011;19470;49.322;7.218;2023-08-08T03:01:54;4.68;;;1.90;;
18274;SDS011;19470;49.322;7.218;2023-08-08T03:04:20;4.50;;;1.70;;
18274;SDS011;19470;49.322;7.218;2023-08-08T03:06:48;6.25;;;1.60;;
18274;SDS011;19470;49.322;7.218;2023-08-08T03:09:14;5.15;;;1.70;;
18274;SDS011;19470;49.322;7.218;2023-08-08T03:11:41;6.28;;;1.80;;
18274;SDS011;19470;49.322;7.218;2023-08-08T03:14:07;3.75;;;1.70;;
18274;SDS011;19470;49.322;7.218;2023-08-08T03:16:34;5.18;;;2.03;;
18274;SDS011;19470;49.322;7.218;2023-08-08T03:19:01;5.05;;;2.00;;
18274;SDS011;19470;49.322;7.218;2023-08-08T03:21:27;3.65;;;1.60;;
18274;SDS011;19470;49.322;7.218;2023-08-08T03:23:55;2.33;;;1.70;;
18274;SDS011;19470;49.322;7.218;2023-08-08T03:26:22;4.95;;;1.73;;
18274;SDS011;19470;49.322;7.218;2023-08-08T03:28:49;3.55;;;1.33;;
18274;SDS011;19470;49.322;7.218;2023-08-08T03:31:18;3.53;;;1.63;;
18274;SDS011;19470;49.322;7.218;2023-08-08T03:33:45;4.97;;;1.50;;
18274;SDS011;19470;49.322;7.218;2023-08-08T03:36:12;5.15;;;1.60;;
18274;SDS011;19470;49.322;7.218;2023-08-08T03:38:39;4.55;;;1.65;;
18274;SDS011;19470;49.322;7.218;2023-08-08T03:41:10;1.67;;;1.48;;
18274;SDS011;19470;49.322;7.218;2023-08-08T03:43:37;3.47;;;1.83;;
18274;SDS011;19470;49.322;7.218;2023-08-08T03:46:03;3.65;;;1.70;;
18274;SDS011;19470;49.322;7.218;2023-08-08T03:48:30;3.33;;;1.77;;
18274;SDS011;19470;49.322;7.218;2023-08-08T03:50:56;4.32;;;1.98;;
18274;SDS011;19470;49.322;7.218;2023-08-08T03:53:23;2.92;;;1.75;;
18274;SDS011;19470;49.322;7.218;2023-08-08T03:55:49;3.58;;;1.80;;
18274;SDS011;19470;49.322;7.218;2023-08-08T03:58:17;2.50;;;1.65;;
18274;SDS011;19470;49.322;7.218;2023-08-08T04:00:44;3.50;;;1.90;;
18274;SDS011;19470;49.322;7.218;2023-08-08T04:03:12;4.35;;;2.15;;
18274;SDS011;19470;49.322;7.218;2023-08-08T04:05:39;5.28;;;2.13;;
18274;SDS011;19470;49.322;7.218;2023-08-08T04:08:05;3.72;;;1.92;;
18274;SDS011;19470;49.322;7.218;2023-08-08T04:10:32;4.43;;;2.20;;
18274;SDS011;19470;49.322;7.218;2023-08-08T04:12:58;5.68;;;1.80;;
18274;SDS011;19470;49.322;7.218;2023-08-08T04:15:26;3.72;;;1.60;;
18274;SDS011;19470;49.322;7.218;2023-08-08T04:17:56;1.92;;;1.50;;
18274;SDS011;19470;49.322;7.218;2023-08-08T04:20:22;2.53;;;1.90;;
18274;SDS011;19470;49.322;7.218;2023-08-08T04:22:49;2.67;;;1.80;;
18274;SDS011;19470;49.322;7.218;2023-08-08T04:25:15;2.08;;;1.70;;
18274;SDS011;19470;49.322;7.218;2023-08-08T04:27:42;4.97;;;2.25;;
18274;SDS011;19470;49.322;7.218;2023-08-08T04:30:09;4.25;;;2.10;;
18274;SDS011;19470;49.322;7.218;2023-08-08T04:32:37;5.60;;;2.33;;
18274;SDS011;19470;49.322;7.218;2023-08-08T04:35:04;4.05;;;2.00;;
18274;SDS011;19470;49.322;7.218;2023-08-08T04:37:36;3.58;;;1.67;;
18274;SDS011;19470;49.322;7.218;2023-08-08T04:40:03;6.88;;;1.90;;
18274;SDS011;19470;49.322;7.218;2023-08-08T04:42:30;4.05;;;1.77;;
18274;SDS011;19470;49.322;7.218;2023-08-08T04:44:58;3.40;;;2.25;;
18274;SDS011;19470;49.322;7.218;2023-08-08T04:47:25;2.78;;;1.63;;
18274;SDS011;19470;49.322;7.218;2023-08-08T04:49:52;4.28;;;1.83;;
18274;SDS011;19470;49.322;7.218;2023-08-08T04:52:20;2.65;;;1.80;;
18274;SDS011;19470;49.322;7.218;2023-08-08T04:54:47;2.45;;;1.90;;
18274;SDS011;19470;49.322;7.218;2023-08-08T04:57:13;8.35;;;3.13;;
18274;SDS011;19470;49.322;7.218;2023-08-08T04:59:40;6.10;;;2.83;;
18274;SDS011;19470;49.322;7.218;2023-08-08T05:02:07;7.15;;;2.95;;
18274;SDS011;19470;49.322;7.218;2023-08-08T05:04:34;7.95;;;3.25;;
18274;SDS011;19470;49.322;7.218;2023-08-08T05:07:02;3.97;;;2.45;;
18274;SDS011;19470;49.322;7.218;2023-08-08T05:09:28;4.43;;;2.60;;
18274;SDS011;19470;49.322;7.218;2023-08-08T05:11:55;10.00;;;3.10;;
18274;SDS011;19470;49.322;7.218;2023-08-08T05:14:21;4.38;;;2.83;;
18274;SDS011;19470;49.322;7.218;2023-08-08T05:16:48;7.15;;;3.33;;
18274;SDS011;19470;49.322;7.218;2023-08-08T05:19:14;7.18;;;2.92;;
18274;SDS011;19470;49.322;7.218;2023-08-08T05:21:41;6.18;;;3.75;;
18274;SDS011;19470;49.322;7.218;2023-08-08T05:24:09;22.40;;;10.82;;
18274;SDS011;19470;49.322;7.218;2023-08-08T05:26:35;11.23;;;3.15;;
18274;SDS011;19470;49.322;7.218;2023-08-08T05:29:02;6.63;;;2.72;;
18274;SDS011;19470;49.322;7.218;2023-08-08T05:31:28;5.78;;;2.60;;
18274;SDS011;19470;49.322;7.218;2023-08-08T05:33:55;8.43;;;2.60;;
18274;SDS011;19470;49.322;7.218;2023-08-08T05:36:21;11.65;;;4.93;;
18274;SDS011;19470;49.322;7.218;2023-08-08T05:38:48;4.03;;;2.40;;
18274;SDS011;19470;49.322;7.218;2023-08-08T05:41:16;4.85;;;2.90;;
18274;SDS011;19470;49.322;7.218;2023-08-08T05:43:43;3.70;;;2.53;;
18274;SDS011;19470;49.322;7.218;2023-08-08T05:46:10;4.28;;;2.80;;
18274;SDS011;19470;49.322;7.218;2023-08-08T05:48:36;14.23;;;7.95;;
18274;SDS011;19470;49.322;7.218;2023-08-08T05:51:03;6.20;;;3.00;;
18274;SDS011;19470;49.322;7.218;2023-08-08T05:53:31;15.23;;;10.15;;
18274;SDS011;19470;49.322;7.218;2023-08-08T05:55:57;6.10;;;3.08;;
18274;SDS011;19470;49.322;7.218;2023-08-08T05:58:25;6.10;;;2.83;;
18274;SDS011;19470;49.322;7.218;2023-08-08T06:00:52;5.15;;;2.60;;
18274;SDS011;19470;49.322;7.218;2023-08-08T06:03:18;6.03;;;2.60;;
18274;SDS011;19470;49.322;7.218;2023-08-08T06:05:45;5.85;;;2.00;;
18274;SDS011;19470;49.322;7.218;2023-08-08T06:08:11;3.85;;;2.05;;
18274;SDS011;19470;49.322;7.218;2023-08-08T06:10:40;6.50;;;2.38;;
18274;SDS011;19470;49.322;7.218;2023-08-08T06:13:06;4.60;;;2.10;;
18274;SDS011;19470;49.322;7.218;2023-08-08T06:15:34;6.75;;;2.70;;
18274;SDS011;19470;49.322;7.218;2023-08-08T06:18:01;7.38;;;2.00;;
18274;SDS011;19470;49.322;7.218;2023-08-08T06:20:29;2.22;;;1.70;;
18274;SDS011;19470;49.322;7.218;2023-08-08T06:22:56;5.47;;;1.85;;
18274;SDS011;19470;49.322;7.218;2023-08-08T06:25:22;7.88;;;2.00;;
18274;SDS011;19470;49.322;7.218;2023-08-08T06:27:49;6.32;;;2.05;;
18274;SDS011;19470;49.322;7.218;2023-08-08T06:30:15;5.35;;;2.30;;
18274;SDS011;19470;49.322;7.218;2023-08-08T06:32:43;4.07;;;2.03;;
18274;SDS011;19470;49.322;7.218;2023-08-08T06:35:10;12.05;;;2.47;;
18274;SDS011;19470;49.322;7.218;2023-08-08T06:37:36;4.88;;;2.17;;
18274;SDS011;19470;49.322;7.218;2023-08-08T06:40:04;6.20;;;2.33;;
18274;SDS011;19470;49.322;7.218;2023-08-08T06:42:32;5.85;;;2.05;;
18274;SDS011;19470;49.322;7.218;2023-08-08T06:45:01;3.13;;;2.05;;
18274;SDS011;19470;49.322;7.218;2023-08-08T06:47:28;6.78;;;2.05;;
18274;SDS011;19470;49.322;7.218;2023-08-08T06:49:56;4.05;;;1.70;;
18274;SDS011;19470;49.322;7.218;2023-08-08T06:52:22;4.95;;;2.17;;
18274;SDS011;19470;49.322;7.218;2023-08-08T06:54:49;3.90;;;2.50;;
18274;SDS011;19470;49.322;7.218;2023-08-08T06:57:15;6.75;;;2.22;;
18274;SDS011;19470;49.322;7.218;2023-08-08T06:59:42;5.43;;;2.38;;
18274;SDS011;19470;49.322;7.218;2023-08-08T07:02:09;6.47;;;2.47;;
18274;SDS011;19470;49.322;7.218;2023-08-08T07:04:36;6.05;;;2.10;;
18274;SDS011;19470;49.322;7.218;2023-08-08T07:07:04;6.78;;;3.10;;
18274;SDS011;19470;49.322;7.218;2023-08-08T07:09:31;5.88;;;1.60;;
18274;SDS011;19470;49.322;7.218;2023-08-08T07:11:59;5.43;;;1.95;;
18274;SDS011;19470;49.322;7.218;2023-08-08T07:14:26;4.50;;;1.70;;
18274;SDS011;19470;49.322;7.218;2023-08-08T07:16:52;3.70;;;1.67;;
18274;SDS011;19470;49.322;7.218;2023-08-08T07:19:19;3.65;;;1.33;;
18274;SDS011;19470;49.322;7.218;2023-08-08T07:21:46;3.35;;;1.50;;
18274;SDS011;19470;49.322;7.218;2023-08-08T07:24:14;3.65;;;1.95;;
18274;SDS011;19470;49.322;7.218;2023-08-08T07:26:40;4.65;;;1.42;;
18274;SDS011;19470;49.322;7.218;2023-08-08T07:29:07;3.75;;;1.30;;
18274;SDS011;19470;49.322;7.218;2023-08-08T07:31:33;6.50;;;1.50;;
18274;SDS011;19470;49.322;7.218;2023-08-08T07:34:02;7.38;;;2.50;;
18274;SDS011;19470;49.322;7.218;2023-08-08T07:36:28;6.95;;;2.25;;
18274;SDS011;19470;49.322;7.218;2023-08-08T07:38:56;4.85;;;3.17;;
18274;SDS011;19470;49.322;7.218;2023-08-08T07:41:26;5.50;;;4.95;;
18274;SDS011;19470;49.322;7.218;2023-08-08T07:43:53;218.23;;;145.93;;
18274;SDS011;19470;49.322;7.218;2023-08-08T07:46:19;35.60;;;32.45;;
18274;SDS011;19470;49.322;7.218;2023-08-08T07:48:46;3.58;;;3.35;;
18274;SDS011;19470;49.322;7.218;2023-08-08T07:51:12;28.17;;;25.55;;
18274;SDS011;19470;49.322;7.218;2023-08-08T07:53:39;60.70;;;55.95;;
18274;SDS011;19470;49.322;7.218;2023-08-08T07:56:06;3.58;;;3.25;;
18274;SDS011;19470;49.322;7.218;2023-08-08T07:58:33;6.10;;;5.55;;
18274;SDS011;19470;49.322;7.218;2023-08-08T08:01:00;29.52;;;27.88;;
18274;SDS011;19470;49.322;7.218;2023-08-08T08:06:21;437.05;;;400.83;;
18274;SDS011;19470;49.322;7.218;2023-08-08T08:08:48;46.88;;;42.35;;
18274;SDS011;19470;49.322;7.218;2023-08-08T08:11:15;168.02;;;151.52;;
18274;SDS011;19470;49.322;7.218;2023-08-08T08:13:43;79.30;;;74.25;;
18274;SDS011;19470;49.322;7.218;2023-08-08T08:16:09;67.85;;;63.92;;
18274;SDS011;19470;49.322;7.218;2023-08-08T08:18:36;80.47;;;76.03;;
18274;SDS011;19470;49.322;7.218;2023-08-08T08:21:03;153.10;;;144.50;;
18274;SDS011;19470;49.322;7.218;2023-08-08T08:23:29;341.10;;;319.73;;
18274;SDS011;19470;49.322;7.218;2023-08-08T08:25:57;289.17;;;272.73;;
18274;SDS011;19470;49.322;7.218;2023-08-08T08:28:24;173.80;;;164.88;;
18274;SDS011;19470;49.322;7.218;2023-08-08T08:30:53;497.58;;;467.02;;
18274;SDS011;19470;49.322;7.218;2023-08-08T08:33:20;425.85;;;401.02;;
18274;SDS011;19470;49.322;7.218;2023-08-08T08:35:46;305.58;;;289.02;;
18274;SDS011;19470;49.322;7.218;2023-08-08T08:38:13;612.53;;;557.50;;
18274;SDS011;19470;49.322;7.218;2023-08-08T08:40:40;366.42;;;343.48;;
18274;SDS011;19470;49.322;7.218;2023-08-08T08:43:09;107.78;;;100.43;;
18274;SDS011;19470;49.322;7.218;2023-08-08T08:45:37;36.20;;;33.53;;
18274;SDS011;19470;49.322;7.218;2023-08-08T08:48:06;21.67;;;19.85;;
18274;SDS011;19470;49.322;7.218;2023-08-08T08:50:37;131.35;;;117.97;;
18274;SDS011;19470;49.322;7.218;2023-08-08T08:53:05;49.90;;;45.55;;
18274;SDS011;19470;49.322;7.218;2023-08-08T08:55:33;40.15;;;37.70;;
18274;SDS011;19470;49.322;7.218;2023-08-08T08:58:01;91.20;;;85.70;;
18274;SDS011;19470;49.322;7.218;2023-08-08T09:00:30;260.13;;;245.45;;
18274;SDS011;19470;49.322;7.218;2023-08-08T09:02:58;888.08;;;825.28;;
18274;SDS011;19470;49.322;7.218;2023-08-08T09:05:26;918.00;;;851.00;;
18274;SDS011;19470;49.322;7.218;2023-08-08T09:07:52;1466.05;;;920.13;;
18274;SDS011;19470;49.322;7.218;2023-08-08T09:10:19;983.05;;;906.75;;
18274;SDS011;19470;49.322;7.218;2023-08-08T09:12:46;980.03;;;890.47;;
18274;SDS011;19470;49.322;7.218;2023-08-08T09:15:14;819.65;;;762.88;;
18274;SDS011;19470;49.322;7.218;2023-08-08T09:17:40;860.92;;;784.08;;
18274;SDS011;19470;49.322;7.218;2023-08-08T09:20:08;674.28;;;624.50;;
18274;SDS011;19470;49.322;7.218;2023-08-08T09:22:37;825.30;;;750.72;;
18274;SDS011;19470;49.322;7.218;2023-08-08T09:25:04;734.25;;;663.03;;
18274;SDS011;19470;49.322;7.218;2023-08-08T09:27:31;695.03;;;648.63;;
18274;SDS011;19470;49.322;7.218;2023-08-08T09:29:58;794.47;;;738.65;;
18274;SDS011;19470;49.322;7.218;2023-08-08T09:32:28;797.92;;;742.83;;
18274;SDS011;19470;49.322;7.218;2023-08-08T09:34:56;782.08;;;728.80;;
18274;SDS011;19470;49.322;7.218;2023-08-08T09:37:24;925.35;;;617.45;;
18274;SDS011;19470;49.322;7.218;2023-08-08T09:39:59;929.75;;;854.08;;
18274;SDS011;19470;49.322;7.218;2023-08-08T09:42:26;921.83;;;847.33;;
18274;SDS011;19470;49.322;7.218;2023-08-08T09:44:53;744.40;;;680.33;;
18274;SDS011;19470;49.322;7.218;2023-08-08T09:47:22;767.00;;;695.28;;
18274;SDS011;19470;49.322;7.218;2023-08-08T09:49:48;866.70;;;802.10;;
18274;SDS011;19470;49.322;7.218;2023-08-08T09:52:16;941.83;;;869.25;;
18274;SDS011;19470;49.322;7.218;2023-08-08T09:54:42;981.55;;;904.85;;
18274;SDS011;19470;49.322;7.218;2023-08-08T09:57:11;870.03;;;793.03;;
18274;SDS011;19470;49.322;7.218;2023-08-08T09:59:37;863.58;;;779.85;;
18274;SDS011;19470;49.322;7.218;2023-08-08T10:02:04;921.25;;;850.28;;
18274;SDS011;19470;49.322;7.218;2023-08-08T10:04:31;1376.68;;;843.17;;
18274;SDS011;19470;49.322;7.218;2023-08-08T10:06:59;982.03;;;901.38;;
18274;SDS011;19470;49.322;7.218;2023-08-08T10:09:25;984.53;;;859.00;;
18274;SDS011;19470;49.322;7.218;2023-08-08T10:11:54;903.15;;;836.92;;
18274;SDS011;19470;49.322;7.218;2023-08-08T10:14:23;863.72;;;802.97;;
18274;SDS011;19470;49.322;7.218;2023-08-08T10:16:55;1024.28;;;934.58;;
18274;SDS011;19470;49.322;7.218;2023-08-08T10:19:22;930.70;;;829.30;;
18274;SDS011;19470;49.322;7.218;2023-08-08T10:21:55;1023.83;;;935.47;;
18274;SDS011;19470;49.322;7.218;2023-08-08T10:24:23;1014.28;;;926.67;;
18274;SDS011;19470;49.322;7.218;2023-08-08T10:26:52;1169.13;;;858.42;;
18274;SDS011;19470;49.322;7.218;2023-08-08T10:29:21;763.38;;;619.53;;
18274;SDS011;19470;49.322;7.218;2023-08-08T10:31:52;1999.90;;;999.90;;
18274;SDS011;19470;49.322;7.218;2023-08-08T10:34:23;898.60;;;575.05;;
18274;SDS011;19470;49.322;7.218;2023-08-08T10:36:53;1999.90;;;999.90;;
18274;SDS011;19470;49.322;7.218;2023-08-08T10:39:21;1999.90;;;999.90;;
18274;SDS011;19470;49.322;7.218;2023-08-08T10:41:48;1603.32;;;835.63;;
18274;SDS011;19470;49.322;7.218;2023-08-08T10:44:22;1999.90;;;999.90;;
18274;SDS011;19470;49.322;7.218;2023-08-08T10:46:51;1999.90;;;999.90;;
18274;SDS011;19470;49.322;7.218;2023-08-08T10:49:20;1999.90;;;999.90;;
18274;SDS011;19470;49.322;7.218;2023-08-08T10:51:48;1599.97;;;826.67;;
18274;SDS011;19470;49.322;7.218;2023-08-08T10:54:17;774.80;;;459.52;;
18274;SDS011;19470;49.322;7.218;2023-08-08T10:56:49;618.35;;;535.30;;
18274;SDS011;19470;49.322;7.218;2023-08-08T10:59:17;1999.90;;;999.90;;
18274;SDS011;19470;49.322;7.218;2023-08-08T11:01:47;521.88;;;450.52;;
18274;SDS011;19470;49.322;7.218;2023-08-08T11:07:00;610.47;;;420.23;;
18274;SDS011;19470;49.322;7.218;2023-08-08T11:09:30;598.65;;;529.35;;
18274;SDS011;19470;49.322;7.218;2023-08-08T11:11:56;817.90;;;738.92;;
18274;SDS011;19470;49.322;7.218;2023-08-08T11:14:24;681.05;;;568.80;;
18274;SDS011;19470;49.322;7.218;2023-08-08T11:16:52;1999.90;;;999.90;;
18274;SDS011;19470;49.322;7.218;2023-08-08T11:19:19;1999.90;;;999.90;;
18274;SDS011;19470;49.322;7.218;2023-08-08T11:21:48;1999.90;;;999.90;;
18274;SDS011;19470;49.322;7.218;2023-08-08T11:24:15;1999.90;;;999.90;;
18274;SDS011;19470;49.322;7.218;2023-08-08T11:26:42;1999.90;;;999.90;;
18274;SDS011;19470;49.322;7.218;2023-08-08T11:29:10;1999.90;;;999.90;;
18274;SDS011;19470;49.322;7.218;2023-08-08T11:31:37;1999.90;;;999.90;;
18274;SDS011;19470;49.322;7.218;2023-08-08T11:34:05;1999.90;;;999.90;;
18274;SDS011;19470;49.322;7.218;2023-08-08T11:36:33;1999.90;;;999.90;;
18274;SDS011;19470;49.322;7.218;2023-08-08T11:39:01;1999.90;;;999.90;;
18274;SDS011;19470;49.322;7.218;2023-08-08T11:41:32;1999.90;;;999.90;;
18274;SDS011;19470;49.322;7.218;2023-08-08T11:44:01;1999.90;;;999.90;;
18274;SDS011;19470;49.322;7.218;2023-08-08T11:46:31;1999.90;;;999.90;;
18274;SDS011;19470;49.322;7.218;2023-08-08T11:49:02;1999.90;;;999.90;;
18274;SDS011;19470;49.322;7.218;2023-08-08T11:51:30;1999.90;;;999.90;;
18274;SDS011;19470;49.322;7.218;2023-08-08T11:56:56;1999.90;;;999.90;;
18274;SDS011;19470;49.322;7.218;2023-08-08T11:59:23;1999.90;;;999.90;;
18274;SDS011;19470;49.322;7.218;2023-08-08T12:01:49;1999.90;;;999.90;;
18274;SDS011;19470;49.322;7.218;2023-08-08T12:04:16;1999.90;;;999.90;;
18274;SDS011;19470;49.322;7.218;2023-08-08T12:06:48;1999.90;;;999.90;;
18274;SDS011;19470;49.322;7.218;2023-08-08T12:09:14;1142.82;;;591.13;;
18274;SDS011;19470;49.322;7.218;2023-08-08T12:11:41;790.15;;;688.05;;
18274;SDS011;19470;49.322;7.218;2023-08-08T12:14:09;855.35;;;759.88;;
18274;SDS011;19470;49.322;7.218;2023-08-08T12:16:38;746.13;;;668.35;;
18274;SDS011;19470;49.322;7.218;2023-08-08T12:19:06;888.28;;;786.35;;
18274;SDS011;19470;49.322;7.218;2023-08-08T12:21:34;1999.90;;;999.90;;
18274;SDS011;19470;49.322;7.218;2023-08-08T12:24:02;609.08;;;550.13;;
18274;SDS011;19470;49.322;7.218;2023-08-08T12:26:28;813.03;;;724.17;;
18274;SDS011;19470;49.322;7.218;2023-08-08T12:28:55;1999.90;;;999.90;;
18274;SDS011;19470;49.322;7.218;2023-08-08T12:31:21;820.90;;;745.42;;
18274;SDS011;19470;49.322;7.218;2023-08-08T12:33:48;1587.50;;;819.70;;
18274;SDS011;19470;49.322;7.218;2023-08-08T12:36:14;287.15;;;217.18;;
18274;SDS011;19470;49.322;7.218;2023-08-08T12:38:41;946.95;;;864.13;;
18274;SDS011;19470;49.322;7.218;2023-08-08T12:41:09;1636.63;;;868.25;;
18274;SDS011;19470;49.322;7.218;2023-08-08T12:43:36;572.10;;;513.08;;
18274;SDS011;19470;49.322;7.218;2023-08-08T12:46:02;813.13;;;530.38;;
18274;SDS011;19470;49.322;7.218;2023-08-08T12:48:29;1262.47;;;736.85;;
18274;SDS011;19470;49.322;7.218;2023-08-08T12:50:55;909.25;;;830.72;;
18274;SDS011;19470;49.322;7.218;2023-08-08T12:53:22;864.75;;;787.70;;
18274;SDS011;19470;49.322;7.218;2023-08-08T12:55:48;861.22;;;789.05;;
18274;SDS011;19470;49.322;7.218;2023-08-08T12:58:16;1335.05;;;803.90;;
18274;SDS011;19470;49.322;7.218;2023-08-08T13:00:44;949.58;;;866.83;;
18274;SDS011;19470;49.322;7.218;2023-08-08T13:03:11;989.95;;;902.47;;
18274;SDS011;19470;49.322;7.218;2023-08-08T13:05:37;1042.95;;;948.92;;
18274;SDS011;19470;49.322;7.218;2023-08-08T13:08:04;930.20;;;835.83;;
18274;SDS011;19470;49.322;7.218;2023-08-08T13:10:31;1014.28;;;929.47;;
18274;SDS011;19470;49.322;7.218;2023-08-08T13:12:58;1012.15;;;922.88;;
18274;SDS011;19470;49.322;7.218;2023-08-08T13:15:26;749.88;;;698.25;;
18274;SDS011;19470;49.322;7.218;2023-08-08T13:17:52;527.63;;;489.27;;
18274;SDS011;19470;49.322;7.218;2023-08-08T13:20:19;94.63;;;88.20;;
18274;SDS011;19470;49.322;7.218;2023-08-08T13:22:47;502.80;;;470.05;;
18274;SDS011;19470;49.322;7.218;2023-08-08T13:25:13;329.67;;;311.20;;
18274;SDS011;19470;49.322;7.218;2023-08-08T13:27:40;582.53;;;545.13;;
18274;SDS011;19470;49.322;7.218;2023-08-08T13:30:07;16.58;;;15.10;;
18274;SDS011;19470;49.322;7.218;2023-08-08T13:32:36;128.32;;;114.07;;
18274;SDS011;19470;49.322;7.218;2023-08-08T13:35:03;407.70;;;359.60;;
18274;SDS011;19470;49.322;7.218;2023-08-08T13:37:30;101.65;;;95.93;;
18274;SDS011;19470;49.322;7.218;2023-08-08T13:39:57;279.27;;;260.25;;
18274;SDS011;19470;49.322;7.218;2023-08-08T13:42:23;333.02;;;294.65;;
18274;SDS011;19470;49.322;7.218;2023-08-08T13:44:50;172.40;;;158.85;;
18274;SDS011;19470;49.322;7.218;2023-08-08T13:47:17;346.05;;;321.10;;
18274;SDS011;19470;49.322;7.218;2023-08-08T13:49:44;99.43;;;93.57;;
18274;SDS011;19470;49.322;7.218;2023-08-08T13:52:11;68.70;;;64.70;;
18274;SDS011;19470;49.322;7.218;2023-08-08T13:54:38;102.20;;;96.13;;
18274;SDS011;19470;49.322;7.218;2023-08-08T13:57:04;234.88;;;220.43;;
18274;SDS011;19470;49.322;7.218;2023-08-08T13:59:31;370.73;;;349.92;;
18274;SDS011;19470;49.322;7.218;2023-08-08T14:01:58;472.83;;;442.67;;
18274;SDS011;19470;49.322;7.218;2023-08-08T14:04:24;425.02;;;399.90;;
18274;SDS011;19470;49.322;7.218;2023-08-08T14:06:52;492.27;;;462.75;;
18274;SDS011;19470;49.322;7.218;2023-08-08T14:09:19;182.45;;;172.18;;
18274;SDS011;19470;49.322;7.218;2023-08-08T14:11:45;628.25;;;585.88;;
18274;SDS011;19470;49.322;7.218;2023-08-08T14:14:12;735.47;;;682.40;;
18274;SDS011;19470;49.322;7.218;2023-08-08T14:16:38;790.42;;;713.00;;
18274;SDS011;19470;49.322;7.218;2023-08-08T14:19:05;415.48;;;389.92;;
18274;SDS011;19470;49.322;7.218;2023-08-08T14:21:31;419.05;;;395.60;;
18274;SDS011;19470;49.322;7.218;2023-08-08T14:23:59;293.65;;;276.90;;
18274;SDS011;19470;49.322;7.218;2023-08-08T14:26:26;504.40;;;470.73;;
18274;SDS011;19470;49.322;7.218;2023-08-08T14:28:53;488.65;;;458.38;;
18274;SDS011;19470;49.322;7.218;2023-08-08T14:31:20;402.80;;;372.95;;
18274;SDS011;19470;49.322;7.218;2023-08-08T14:33:46;726.45;;;448.35;;